Campos Novos, Brazil
Current Conditions -  °F | °C
As of 3:00 PM on Saturday 20 Dec 2014 (Local Time) from SBCH Reporting Station
Scattered Clouds Scattered Clouds  
Wind Chill: 84°   Ceiling: Unl
Heat Index: 87°   Visibility: 6mi
Dew Point: 68°   Wind: 16mph
Humidity: 58%   Direction: 350°N
Pressure: 29.71"   Gusts: NA
Location:  27.4°S, 51.22°W
Report Text: SBCH 201700Z 35014KT 9999 FEW040TCU SCT050 29/20 Q1006
Loading
Personal Weather Stations






























Interactive Weather Map New forecast layout! Learn more

10-Day Weather Forecast

Advertisements
Track Severe Weather on mobile